N337B VA07-KHSP
Flight info
| Callsign | N337B |
|---|---|
| Flight time | 0h 33m |
| Altitude | 5500 |
| Route | DCT |
| Aircraft | C337/L-V/N |
Departure
| Time | 2026-05-08 16:20 |
|---|---|
| Airport | Burkes Garden Airport (VA07) |
Arrival
| Time | 2026-05-08 16:53 |
|---|---|
| Airport | Ingalls Field (KHSP) |
| Time | Latitude | Longitude | Altitude | Speed | Heading |
|---|---|---|---|---|---|
| 2026-05-08 16:17 | 37.09822 | -81.36562 | 3094 ft | 0 kts | 325° |
| 2026-05-08 16:18 | 37.09836 | -81.36527 | 3093 ft | 13 kts | 67° |
| 2026-05-08 16:19 | 37.09831 | -81.36487 | 3092 ft | 0 kts | 231° |
| 2026-05-08 16:19 | 37.09763 | -81.36624 | 3099 ft | 46 kts | 238° |
| 2026-05-08 16:19 | 37.09521 | -81.37106 | 3153 ft | 79 kts | 244° |
| 2026-05-08 16:20 | 37.09285 | -81.37736 | 3453 ft | 80 kts | 248° |
| 2026-05-08 16:20 | 37.08912 | -81.38257 | 3723 ft | 90 kts | 193° |
| 2026-05-08 16:20 | 37.08398 | -81.37884 | 3983 ft | 93 kts | 125° |
| 2026-05-08 16:20 | 37.07935 | -81.37197 | 4083 ft | 111 kts | 132° |
| 2026-05-08 16:21 | 37.07838 | -81.36249 | 4235 ft | 121 kts | 65° |
| 2026-05-08 16:21 | 37.08230 | -81.35367 | 4549 ft | 115 kts | 59° |
| 2026-05-08 16:21 | 37.08671 | -81.34446 | 4866 ft | 124 kts | 56° |
| 2026-05-08 16:21 | 37.09138 | -81.33499 | 5194 ft | 137 kts | 53° |
| 2026-05-08 16:22 | 37.09645 | -81.32513 | 5689 ft | 129 kts | 57° |
| 2026-05-08 16:22 | 37.10149 | -81.31458 | 5663 ft | 156 kts | 57° |
| 2026-05-08 16:22 | 37.10747 | -81.30246 | 5596 ft | 168 kts | 54° |
| 2026-05-08 16:22 | 37.11395 | -81.29000 | 5589 ft | 174 kts | 54° |
| 2026-05-08 16:23 | 37.12080 | -81.27694 | 5641 ft | 186 kts | 55° |
| 2026-05-08 16:23 | 37.12766 | -81.26330 | 5760 ft | 180 kts | 57° |
| 2026-05-08 16:23 | 37.13394 | -81.25055 | 6061 ft | 165 kts | 56° |
| 2026-05-08 16:23 | 37.13987 | -81.23861 | 6357 ft | 158 kts | 56° |
| 2026-05-08 16:24 | 37.14552 | -81.22707 | 6637 ft | 153 kts | 56° |
| 2026-05-08 16:24 | 37.15098 | -81.21580 | 6913 ft | 150 kts | 56° |
| 2026-05-08 16:24 | 37.15636 | -81.20457 | 7200 ft | 154 kts | 56° |
| 2026-05-08 16:24 | 37.16206 | -81.19277 | 7378 ft | 163 kts | 56° |
| 2026-05-08 16:25 | 37.16798 | -81.18043 | 7535 ft | 169 kts | 56° |
| 2026-05-08 16:25 | 37.17424 | -81.16727 | 7513 ft | 178 kts | 56° |
| 2026-05-08 16:25 | 37.18069 | -81.15397 | 7538 ft | 181 kts | 55° |
| 2026-05-08 16:25 | 37.18719 | -81.14049 | 7525 ft | 184 kts | 58° |
| 2026-05-08 16:26 | 37.19284 | -81.12588 | 7518 ft | 188 kts | 63° |
| 2026-05-08 16:26 | 37.19815 | -81.11081 | 7565 ft | 189 kts | 64° |
| 2026-05-08 16:26 | 37.20318 | -81.09639 | 7886 ft | 172 kts | 64° |
| 2026-05-08 16:26 | 37.20774 | -81.08313 | 8211 ft | 160 kts | 64° |
| 2026-05-08 16:27 | 37.21198 | -81.07058 | 8499 ft | 155 kts | 64° |
| 2026-05-08 16:27 | 37.21621 | -81.05801 | 8673 ft | 157 kts | 64° |
| 2026-05-08 16:27 | 37.22047 | -81.04532 | 8843 ft | 158 kts | 64° |
| 2026-05-08 16:27 | 37.22473 | -81.03255 | 9056 ft | 159 kts | 64° |
| 2026-05-08 16:28 | 37.22899 | -81.01986 | 9293 ft | 161 kts | 64° |
| 2026-05-08 16:28 | 37.23339 | -81.00664 | 9434 ft | 166 kts | 64° |
| 2026-05-08 16:28 | 37.23792 | -80.99306 | 9512 ft | 174 kts | 64° |
| 2026-05-08 16:28 | 37.24278 | -80.97862 | 9509 ft | 184 kts | 64° |
| 2026-05-08 16:29 | 37.24856 | -80.96410 | 9511 ft | 187 kts | 49° |
| 2026-05-08 16:29 | 37.25721 | -80.95178 | 9506 ft | 188 kts | 41° |
| 2026-05-08 16:29 | 37.26586 | -80.93937 | 9507 ft | 190 kts | 46° |
| 2026-05-08 16:29 | 37.27409 | -80.92637 | 9507 ft | 190 kts | 47° |
| 2026-05-08 16:30 | 37.28225 | -80.91333 | 9501 ft | 190 kts | 47° |
| 2026-05-08 16:30 | 37.29038 | -80.90037 | 9502 ft | 193 kts | 47° |
| 2026-05-08 16:30 | 37.29871 | -80.88717 | 9503 ft | 193 kts | 46° |
| 2026-05-08 16:30 | 37.30706 | -80.87396 | 9500 ft | 193 kts | 46° |
| 2026-05-08 16:31 | 37.31533 | -80.86071 | 9502 ft | 192 kts | 47° |
| 2026-05-08 16:31 | 37.32358 | -80.84759 | 9502 ft | 191 kts | 46° |
| 2026-05-08 16:31 | 37.33189 | -80.83443 | 9501 ft | 192 kts | 47° |
| 2026-05-08 16:31 | 37.34017 | -80.82128 | 9497 ft | 192 kts | 46° |
| 2026-05-08 16:32 | 37.34836 | -80.80798 | 9498 ft | 194 kts | 52° |
| 2026-05-08 16:32 | 37.35430 | -80.79274 | 9496 ft | 197 kts | 63° |
| 2026-05-08 16:32 | 37.35970 | -80.77679 | 9502 ft | 199 kts | 64° |
| 2026-05-08 16:32 | 37.36517 | -80.76086 | 9499 ft | 198 kts | 63° |
| 2026-05-08 16:33 | 37.37062 | -80.74494 | 9500 ft | 198 kts | 64° |
| 2026-05-08 16:33 | 37.37609 | -80.72892 | 9502 ft | 200 kts | 64° |
| 2026-05-08 16:33 | 37.38164 | -80.71296 | 9500 ft | 199 kts | 63° |
| 2026-05-08 16:33 | 37.38718 | -80.69694 | 9494 ft | 200 kts | 63° |
| 2026-05-08 16:34 | 37.39271 | -80.68088 | 9499 ft | 202 kts | 64° |
| 2026-05-08 16:34 | 37.39827 | -80.66507 | 9492 ft | 199 kts | 63° |
| 2026-05-08 16:34 | 37.40390 | -80.64926 | 9497 ft | 199 kts | 63° |
| 2026-05-08 16:34 | 37.40946 | -80.63321 | 9494 ft | 201 kts | 63° |
| 2026-05-08 16:35 | 37.41504 | -80.61724 | 9487 ft | 199 kts | 63° |
| 2026-05-08 16:35 | 37.42055 | -80.60133 | 9487 ft | 198 kts | 64° |
| 2026-05-08 16:35 | 37.42608 | -80.58543 | 9484 ft | 199 kts | 63° |
| 2026-05-08 16:35 | 37.43162 | -80.56946 | 9496 ft | 200 kts | 63° |
| 2026-05-08 16:36 | 37.43727 | -80.55339 | 9496 ft | 200 kts | 63° |
| 2026-05-08 16:36 | 37.44289 | -80.53740 | 9490 ft | 199 kts | 63° |
| 2026-05-08 16:36 | 37.44843 | -80.52156 | 9490 ft | 198 kts | 63° |
| 2026-05-08 16:36 | 37.45393 | -80.50586 | 9493 ft | 201 kts | 64° |
| 2026-05-08 16:37 | 37.45967 | -80.48961 | 9494 ft | 204 kts | 63° |
| 2026-05-08 16:37 | 37.46544 | -80.47330 | 9494 ft | 204 kts | 64° |
| 2026-05-08 16:37 | 37.47123 | -80.45705 | 9502 ft | 203 kts | 63° |
| 2026-05-08 16:37 | 37.47691 | -80.44093 | 9495 ft | 201 kts | 63° |
| 2026-05-08 16:38 | 37.48255 | -80.42495 | 9497 ft | 200 kts | 63° |
| 2026-05-08 16:38 | 37.48820 | -80.40890 | 9502 ft | 201 kts | 63° |
| 2026-05-08 16:38 | 37.49382 | -80.39287 | 9490 ft | 199 kts | 64° |
| 2026-05-08 16:38 | 37.49970 | -80.37748 | 9483 ft | 196 kts | 52° |
| 2026-05-08 16:39 | 37.50910 | -80.36564 | 9492 ft | 190 kts | 33° |
| 2026-05-08 16:39 | 37.51934 | -80.35520 | 9486 ft | 190 kts | 34° |
| 2026-05-08 16:39 | 37.52921 | -80.34403 | 9486 ft | 191 kts | 37° |
| 2026-05-08 16:39 | 37.53882 | -80.33244 | 9490 ft | 192 kts | 38° |
| 2026-05-08 16:40 | 37.54847 | -80.32079 | 9486 ft | 193 kts | 38° |
| 2026-05-08 16:40 | 37.55825 | -80.30911 | 9493 ft | 194 kts | 38° |
| 2026-05-08 16:40 | 37.56807 | -80.29733 | 9500 ft | 195 kts | 38° |
| 2026-05-08 16:40 | 37.57776 | -80.28569 | 9496 ft | 196 kts | 38° |
| 2026-05-08 16:41 | 37.58764 | -80.27384 | 9502 ft | 197 kts | 38° |
| 2026-05-08 16:41 | 37.59757 | -80.26190 | 9493 ft | 196 kts | 38° |
| 2026-05-08 16:41 | 37.60741 | -80.25005 | 9496 ft | 195 kts | 39° |
| 2026-05-08 16:42 | 37.62425 | -80.22275 | 9475 ft | 199 kts | 52° |
| 2026-05-08 16:42 | 37.63175 | -80.20808 | 9425 ft | 200 kts | 54° |
| 2026-05-08 16:42 | 37.63862 | -80.19279 | 9409 ft | 200 kts | 60° |
| 2026-05-08 16:42 | 37.64429 | -80.17698 | 9447 ft | 197 kts | 65° |
| 2026-05-08 16:43 | 37.64917 | -80.16090 | 9410 ft | 200 kts | 66° |
| 2026-05-08 16:43 | 37.65509 | -80.14515 | 9402 ft | 199 kts | 57° |
| 2026-05-08 16:43 | 37.66235 | -80.13036 | 9417 ft | 196 kts | 52° |
| 2026-05-08 16:43 | 37.66961 | -80.11567 | 9340 ft | 201 kts | 55° |
| 2026-05-08 16:44 | 37.67740 | -80.10065 | 9166 ft | 207 kts | 51° |
| 2026-05-08 16:44 | 37.68588 | -80.08576 | 8990 ft | 210 kts | 50° |
| 2026-05-08 16:44 | 37.69444 | -80.07080 | 8818 ft | 211 kts | 50° |
| 2026-05-08 16:44 | 37.70306 | -80.05581 | 8643 ft | 210 kts | 50° |
| 2026-05-08 16:45 | 37.71143 | -80.04099 | 8480 ft | 209 kts | 51° |
| 2026-05-08 16:45 | 37.71978 | -80.02601 | 8298 ft | 208 kts | 51° |
| 2026-05-08 16:45 | 37.72811 | -80.01105 | 8128 ft | 208 kts | 51° |
| 2026-05-08 16:45 | 37.73641 | -79.99621 | 7960 ft | 208 kts | 51° |
| 2026-05-08 16:46 | 37.74467 | -79.98133 | 7781 ft | 206 kts | 51° |
| 2026-05-08 16:46 | 37.75269 | -79.96641 | 7614 ft | 205 kts | 55° |
| 2026-05-08 16:46 | 37.75976 | -79.95075 | 7445 ft | 205 kts | 58° |
| 2026-05-08 16:46 | 37.76658 | -79.93498 | 7269 ft | 204 kts | 58° |
| 2026-05-08 16:47 | 37.77340 | -79.91935 | 7096 ft | 203 kts | 58° |
| 2026-05-08 16:47 | 37.78008 | -79.90398 | 6936 ft | 202 kts | 58° |
| 2026-05-08 16:47 | 37.78679 | -79.88849 | 6765 ft | 200 kts | 58° |
| 2026-05-08 16:47 | 37.79343 | -79.87300 | 6614 ft | 203 kts | 58° |
| 2026-05-08 16:48 | 37.80026 | -79.85757 | 6440 ft | 200 kts | 54° |
| 2026-05-08 16:48 | 37.80837 | -79.84331 | 6271 ft | 201 kts | 46° |
| 2026-05-08 16:48 | 37.81888 | -79.83214 | 6064 ft | 195 kts | 26° |
| 2026-05-08 16:48 | 37.83121 | -79.82598 | 5900 ft | 189 kts | 9° |
| 2026-05-08 16:49 | 37.84416 | -79.82420 | 5725 ft | 185 kts | 357° |
| 2026-05-08 16:49 | 37.85690 | -79.82512 | 5537 ft | 184 kts | 352° |
| 2026-05-08 16:49 | 37.86942 | -79.82660 | 5413 ft | 178 kts | 352° |
| 2026-05-08 16:49 | 37.88130 | -79.82789 | 5292 ft | 160 kts | 353° |
| 2026-05-08 16:50 | 37.89175 | -79.82904 | 5159 ft | 145 kts | 352° |
| 2026-05-08 16:50 | 37.90171 | -79.83061 | 5052 ft | 145 kts | 350° |
| 2026-05-08 16:50 | 37.91165 | -79.83217 | 4993 ft | 142 kts | 351° |
| 2026-05-08 16:50 | 37.92168 | -79.83120 | 4955 ft | 141 kts | 9° |
| 2026-05-08 16:51 | 37.93036 | -79.82685 | 4962 ft | 137 kts | 43° |
| 2026-05-08 16:51 | 37.93531 | -79.81623 | 4972 ft | 142 kts | 60° |
| 2026-05-08 16:51 | 37.94011 | -79.80572 | 4970 ft | 133 kts | 53° |
| 2026-05-08 16:51 | 37.94496 | -79.79595 | 4938 ft | 129 kts | 54° |
| 2026-05-08 16:52 | 37.95139 | -79.79076 | 4920 ft | 107 kts | 353° |
| 2026-05-08 16:52 | 37.95765 | -79.79512 | 4720 ft | 102 kts | 322° |
| 2026-05-08 16:52 | 37.96347 | -79.80030 | 4526 ft | 102 kts | 321° |
| 2026-05-08 16:52 | 37.96444 | -79.80811 | 4346 ft | 103 kts | 242° |
| 2026-05-08 16:53 | 37.95750 | -79.82134 | 3905 ft | 80 kts | 239° |
| 2026-05-08 16:53 | 37.95468 | -79.82710 | 3797 ft | 70 kts | 242° |
| 2026-05-08 16:53 | 37.95263 | -79.83139 | 3781 ft | 47 kts | 240° |
| 2026-05-08 16:54 | 37.95160 | -79.83388 | 3779 ft | 14 kts | 278° |
| 2026-05-08 16:54 | 37.95222 | -79.83449 | 3782 ft | 10 kts | 330° |
| 2026-05-08 16:54 | 37.95277 | -79.83460 | 3779 ft | 8 kts | 34° |
| 2026-05-08 16:54 | 37.95323 | -79.83423 | 3778 ft | 7 kts | 31° |
| 2026-05-08 16:55 | 37.95331 | -79.83380 | 3778 ft | 6 kts | 143° |
| 2026-05-08 16:55 | 37.95300 | -79.83358 | 3785 ft | 4 kts | 159° |
| 2026-05-08 16:55 | 37.95289 | -79.83337 | 3778 ft | 3 kts | 103° |
| 2026-05-08 16:55 | 37.95286 | -79.83316 | 3780 ft | 2 kts | 99° |
| 2026-05-08 16:56 | 37.95286 | -79.83304 | 3777 ft | 1 kts | 81° |
| 2026-05-08 16:56 | 37.95286 | -79.83303 | 3777 ft | 0 kts | 80° |
| 2026-05-08 16:56 | 37.95287 | -79.83298 | 3777 ft | 2 kts | 77° |
| 2026-05-08 16:57 | 37.95329 | -79.83198 | 3780 ft | 17 kts | 61° |
| 2026-05-08 16:57 | 37.95391 | -79.83073 | 3776 ft | 17 kts | 53° |
| 2026-05-08 16:57 | 37.95448 | -79.82952 | 3772 ft | 16 kts | 61° |
| 2026-05-08 16:57 | 37.95501 | -79.82839 | 3775 ft | 15 kts | 59° |
| 2026-05-08 16:58 | 37.95555 | -79.82733 | 3768 ft | 14 kts | 58° |
| 2026-05-08 16:58 | 37.95574 | -79.82649 | 3773 ft | 0 kts | 30° |